createdAt,value
2018-04-04T00:02:20.155Z,6.20
2018-04-04T00:04:47.840Z,5.13
2018-04-04T00:07:15.879Z,4.60
2018-04-04T00:09:43.531Z,5.63
2018-04-04T00:12:11.169Z,5.50
2018-04-04T00:14:38.835Z,5.30
2018-04-04T00:17:06.491Z,5.43
2018-04-04T00:19:34.172Z,5.83
2018-04-04T00:22:01.923Z,6.17
2018-04-04T00:24:29.585Z,5.67
2018-04-04T00:26:57.222Z,5.60
2018-04-04T00:29:24.894Z,5.67
2018-04-04T00:31:52.558Z,5.70
2018-04-04T00:34:20.303Z,5.90
2018-04-04T00:36:48.424Z,5.40
2018-04-04T00:39:16.075Z,5.90
2018-04-04T00:41:43.777Z,5.77
2018-04-04T00:44:11.487Z,5.13
2018-04-04T00:46:39.130Z,5.43
2018-04-04T00:49:06.907Z,5.70
2018-04-04T00:51:35.365Z,5.53
2018-04-04T00:54:03.058Z,5.97
2018-04-04T00:56:30.697Z,6.17
2018-04-04T00:58:58.730Z,5.43
2018-04-04T01:01:26.402Z,5.57
2018-04-04T01:03:54.049Z,6.33
2018-04-04T01:06:21.717Z,7.13
2018-04-04T01:08:49.431Z,6.77
2018-04-04T01:11:17.195Z,5.43
2018-04-04T01:13:44.872Z,6.33
2018-04-04T01:16:12.507Z,6.30
2018-04-04T01:18:40.184Z,5.47
2018-04-04T01:21:07.830Z,7.27
2018-04-04T01:23:35.872Z,6.90
2018-04-04T01:26:03.567Z,7.40
2018-04-04T01:28:31.314Z,6.47
2018-04-04T01:30:59.346Z,7.10
2018-04-04T01:33:27.084Z,7.57
2018-04-04T01:35:54.817Z,8.20
2018-04-04T01:38:22.880Z,8.00
2018-04-04T01:40:50.918Z,7.30
2018-04-04T01:43:18.565Z,7.13
2018-04-04T01:45:46.202Z,7.67
2018-04-04T01:48:13.867Z,7.40
2018-04-04T01:50:41.511Z,7.57
2018-04-04T01:53:09.603Z,7.50
2018-04-04T01:55:37.334Z,7.20
2018-04-04T01:58:05.379Z,7.23
2018-04-04T02:00:33.103Z,7.70
2018-04-04T02:03:00.799Z,7.73
2018-04-04T02:05:28.476Z,7.60
2018-04-04T02:07:56.778Z,7.53
2018-04-04T02:10:24.880Z,6.90
2018-04-04T02:12:52.535Z,8.40
2018-04-04T02:15:20.383Z,7.53
2018-04-04T02:17:48.479Z,7.60
2018-04-04T02:20:16.243Z,7.23
2018-04-04T02:22:43.902Z,7.30
2018-04-04T02:25:11.556Z,6.60
2018-04-04T02:27:39.230Z,8.70
2018-04-04T02:30:06.963Z,7.90
2018-04-04T02:32:35.009Z,8.03
2018-04-04T02:35:02.662Z,7.90
2018-04-04T02:37:30.385Z,7.00
2018-04-04T02:39:58.134Z,7.47
2018-04-04T02:42:26.223Z,8.27
2018-04-04T02:44:53.882Z,8.87
2018-04-04T02:47:21.529Z,9.73
2018-04-04T02:49:49.290Z,8.40
2018-04-04T02:52:17.346Z,8.07
2018-04-04T02:54:45.013Z,8.17
2018-04-04T02:57:13.054Z,8.67
2018-04-04T02:59:40.752Z,9.20
2018-04-04T03:02:08.824Z,8.63
2018-04-04T03:04:36.866Z,7.80
2018-04-04T03:07:04.522Z,7.97
2018-04-04T03:09:32.178Z,8.30
2018-04-04T03:11:59.839Z,9.13
2018-04-04T03:14:27.495Z,9.57
2018-04-04T03:16:55.136Z,8.60
2018-04-04T03:19:22.804Z,8.57
2018-04-04T03:21:50.442Z,8.73
2018-04-04T03:24:18.103Z,8.20
2018-04-04T03:26:45.881Z,8.40
2018-04-04T03:29:13.626Z,7.30
2018-04-04T03:31:41.712Z,8.00
2018-04-04T03:34:09.377Z,8.10
2018-04-04T03:36:37.111Z,8.47
2018-04-04T03:39:05.751Z,8.23
2018-04-04T03:41:33.536Z,8.73
2018-04-04T03:44:01.181Z,8.07
2018-04-04T03:46:28.835Z,8.33
2018-04-04T03:48:56.547Z,7.30
2018-04-04T03:51:24.587Z,9.93
2018-04-04T03:53:52.257Z,9.17
2018-04-04T03:56:19.894Z,7.70
2018-04-04T03:58:47.537Z,8.10
2018-04-04T04:01:15.304Z,8.30
2018-04-04T04:03:42.954Z,8.23
2018-04-04T04:06:10.719Z,7.73
2018-04-04T04:08:38.475Z,7.67
2018-04-04T04:11:06.157Z,7.63
2018-04-04T04:13:33.800Z,8.07
2018-04-04T04:16:01.477Z,7.53
2018-04-04T04:18:29.206Z,6.50
2018-04-04T04:20:57.256Z,6.80
2018-04-04T04:23:24.933Z,7.40
2018-04-04T04:25:52.985Z,7.40
2018-04-04T04:28:20.650Z,7.60
2018-04-04T04:30:48.373Z,8.07
2018-04-04T04:33:16.041Z,7.13
2018-04-04T04:35:43.766Z,7.23
2018-04-04T04:38:11.818Z,7.30
2018-04-04T04:40:39.850Z,7.07
2018-04-04T04:43:07.611Z,5.93
2018-04-04T04:45:35.247Z,7.03
2018-04-04T04:48:03.284Z,6.93
2018-04-04T04:50:30.933Z,8.70
2018-04-04T04:52:58.587Z,7.70
2018-04-04T04:55:26.240Z,6.37
2018-04-04T04:57:53.901Z,7.13
2018-04-04T05:00:21.553Z,6.83
2018-04-04T05:02:49.301Z,6.63
2018-04-04T05:05:17.075Z,6.90
2018-04-04T05:07:44.754Z,6.33
2018-04-04T05:10:12.427Z,6.77
2018-04-04T05:12:40.139Z,6.40
2018-04-04T05:15:08.179Z,6.57
2018-04-04T05:17:35.905Z,6.33
2018-04-04T05:20:03.566Z,6.73
2018-04-04T05:22:31.287Z,7.00
2018-04-04T05:24:59.420Z,7.47
2018-04-04T05:27:27.134Z,6.80
2018-04-04T05:29:55.338Z,6.97
2018-04-04T05:32:22.990Z,7.10
2018-04-04T05:34:50.655Z,6.80
2018-04-04T05:37:18.394Z,6.13
2018-04-04T05:39:46.462Z,5.80
2018-04-04T05:42:14.496Z,6.70
2018-04-04T05:44:42.147Z,7.40
2018-04-04T05:47:09.810Z,10.13
2018-04-04T05:49:37.501Z,6.53
2018-04-04T05:52:05.156Z,7.43
2018-04-04T05:54:32.848Z,6.70
2018-04-04T05:57:00.893Z,6.83
2018-04-04T05:59:28.538Z,7.30
2018-04-04T06:01:56.203Z,6.70
2018-04-04T06:04:23.880Z,6.97
2018-04-04T06:06:51.567Z,6.90
2018-04-04T06:09:19.606Z,6.77
2018-04-04T06:11:47.297Z,7.20
2018-04-04T06:14:15.342Z,6.93
2018-04-04T06:16:43.003Z,6.63
2018-04-04T06:19:10.741Z,7.80
2018-04-04T06:21:38.404Z,5.10
2018-04-04T06:24:06.047Z,6.03
2018-04-04T06:26:33.782Z,5.63
2018-04-04T06:29:01.876Z,5.73
2018-04-04T06:31:29.623Z,5.37
2018-04-04T06:33:57.659Z,5.30
2018-04-04T06:36:25.326Z,5.80
2018-04-04T06:38:52.966Z,4.90
2018-04-04T06:41:20.676Z,4.80
2018-04-04T06:43:48.721Z,5.60
2018-04-04T06:46:16.378Z,5.80
2018-04-04T06:48:44.023Z,4.83
2018-04-04T06:51:11.730Z,6.57
2018-04-04T06:53:39.774Z,6.03
2018-04-04T06:56:07.469Z,4.70
2018-04-04T06:58:35.510Z,4.67
2018-04-04T07:01:03.210Z,4.70
2018-04-04T07:03:30.860Z,5.30
2018-04-04T07:05:58.940Z,4.97
2018-04-04T07:08:27.173Z,6.03
2018-04-04T07:10:54.840Z,5.40
2018-04-04T07:13:22.532Z,4.90
2018-04-04T07:15:50.613Z,4.47
2018-04-04T07:18:18.651Z,4.43
2018-04-04T07:20:46.313Z,4.20
2018-04-04T07:23:13.954Z,3.67
2018-04-04T07:25:41.663Z,4.43
2018-04-04T07:28:09.704Z,4.63
2018-04-04T07:30:37.363Z,3.77
2018-04-04T07:33:05.001Z,3.67
2018-04-04T07:35:32.643Z,4.07
2018-04-04T07:38:00.414Z,3.63
2018-04-04T07:40:28.054Z,3.60
2018-04-04T07:42:56.119Z,3.83
2018-04-04T07:45:24.174Z,3.13
2018-04-04T07:47:51.847Z,2.70
2018-04-04T07:50:19.871Z,2.70
2018-04-04T07:52:47.527Z,3.63
2018-04-04T07:55:15.166Z,2.63
2018-04-04T07:57:42.924Z,4.00
2018-04-04T08:00:10.576Z,3.33
2018-04-04T08:02:38.652Z,2.50
2018-04-04T08:05:06.687Z,2.63
2018-04-04T08:07:34.376Z,2.23
2018-04-04T08:10:02.417Z,2.43
2018-04-04T08:12:30.084Z,2.80
2018-04-04T08:14:57.768Z,2.70
2018-04-04T08:17:25.852Z,2.40
2018-04-04T08:19:53.904Z,2.50
2018-04-04T08:22:21.577Z,2.43
2018-04-04T08:24:49.692Z,3.07
2018-04-04T08:27:17.409Z,2.20
2018-04-04T08:29:45.451Z,2.20
2018-04-04T08:32:13.081Z,2.50
2018-04-04T08:34:40.783Z,2.50
2018-04-04T08:37:08.432Z,2.60
2018-04-04T08:39:36.098Z,2.70
2018-04-04T08:42:03.757Z,2.63
2018-04-04T08:44:31.421Z,2.63
2018-04-04T08:46:59.133Z,2.70
2018-04-04T08:49:26.790Z,2.83
2018-04-04T08:51:54.854Z,2.37
2018-04-04T08:54:22.888Z,2.70
2018-04-04T08:56:50.542Z,2.90
2018-04-04T08:59:18.177Z,2.70
2018-04-04T09:01:45.836Z,3.10
2018-04-04T09:04:13.576Z,2.27
2018-04-04T09:06:41.615Z,2.90
2018-04-04T09:09:09.337Z,2.33
2018-04-04T09:11:37.068Z,2.90
2018-04-04T09:14:05.107Z,4.27
2018-04-04T09:16:32.802Z,2.47
2018-04-04T09:19:00.904Z,2.93
2018-04-04T09:21:28.572Z,4.20
2018-04-04T09:23:56.299Z,4.07
2018-04-04T09:26:25.184Z,3.80
2018-04-04T09:28:53.253Z,2.53
2018-04-04T09:31:20.963Z,2.97
2018-04-04T09:33:48.733Z,2.30
2018-04-04T09:36:16.415Z,2.67
2018-04-04T09:38:44.061Z,2.23
2018-04-04T09:41:11.722Z,2.07
2018-04-04T09:43:39.361Z,3.20
2018-04-04T09:46:07.021Z,2.60
2018-04-04T09:48:34.698Z,1.90
2018-04-04T09:51:02.489Z,1.83
2018-04-04T09:53:30.233Z,1.63
2018-04-04T09:55:57.991Z,1.90
2018-04-04T09:58:25.646Z,2.37
2018-04-04T10:00:53.298Z,2.30
2018-04-04T10:03:20.946Z,1.87
2018-04-04T10:05:48.606Z,11.90
2018-04-04T10:08:16.659Z,1.97
2018-04-04T10:10:44.304Z,2.00
2018-04-04T10:13:11.951Z,1.53
2018-04-04T10:15:39.680Z,2.00
2018-04-04T10:18:07.318Z,1.80
2018-04-04T10:20:35.409Z,1.73
2018-04-04T10:23:03.481Z,1.80
2018-04-04T10:25:31.534Z,2.50
2018-04-04T10:27:59.566Z,2.47
2018-04-04T10:30:27.215Z,2.30
2018-04-04T10:32:54.883Z,2.40
2018-04-04T10:35:22.586Z,2.10
2018-04-04T10:37:50.226Z,1.90
2018-04-04T10:40:17.897Z,2.63
2018-04-04T10:42:45.540Z,2.27
2018-04-04T10:45:13.180Z,2.67
2018-04-04T10:47:40.817Z,2.13
2018-04-04T10:50:08.858Z,2.30
2018-04-04T10:52:36.547Z,2.37
2018-04-04T10:55:04.805Z,2.87
2018-04-04T10:57:32.259Z,2.50
2018-04-04T10:59:59.906Z,2.30
2018-04-04T11:02:27.546Z,1.77
2018-04-04T11:04:55.214Z,2.53
2018-04-04T11:07:22.954Z,2.10
2018-04-04T11:09:50.599Z,2.17
2018-04-04T11:12:18.320Z,2.40
2018-04-04T11:14:46.019Z,2.17
2018-04-04T11:17:14.061Z,2.70
2018-04-04T11:19:41.765Z,2.30
2018-04-04T11:22:09.423Z,2.53
2018-04-04T11:24:37.077Z,2.70
2018-04-04T11:27:05.119Z,2.27
2018-04-04T11:29:33.174Z,1.93
2018-04-04T11:32:00.818Z,2.23
2018-04-04T11:34:28.462Z,1.97
2018-04-04T11:36:56.096Z,1.87
2018-04-04T11:39:24.151Z,2.67
2018-04-04T11:41:51.800Z,3.07
2018-04-04T11:44:19.498Z,2.77
2018-04-04T11:46:47.547Z,2.57
2018-04-04T11:49:15.200Z,1.67
2018-04-04T11:51:42.853Z,2.87
2018-04-04T11:54:10.529Z,2.83
2018-04-04T11:56:38.173Z,2.50
2018-04-04T11:59:05.828Z,2.57
2018-04-04T12:01:33.474Z,1.13
2018-04-04T12:04:01.120Z,1.73
2018-04-04T12:06:28.776Z,1.60
2018-04-04T12:08:56.453Z,1.70
2018-04-04T12:11:24.114Z,1.63
2018-04-04T12:13:51.813Z,1.93
2018-04-04T12:16:19.498Z,2.20
2018-04-04T12:18:47.143Z,2.00
2018-04-04T12:21:14.782Z,2.37
2018-04-04T12:23:42.459Z,2.80
2018-04-04T12:26:10.104Z,2.60
2018-04-04T12:28:37.845Z,2.23
2018-04-04T12:31:05.581Z,2.80
2018-04-04T12:33:33.656Z,2.73
2018-04-04T12:36:01.693Z,2.07
2018-04-04T12:38:29.446Z,2.00
2018-04-04T12:40:57.080Z,2.30
2018-04-04T12:43:24.730Z,3.10
2018-04-04T12:45:52.370Z,2.50
2018-04-04T12:48:20.411Z,2.50
2018-04-04T12:50:48.088Z,2.70
2018-04-04T12:53:15.735Z,2.47
2018-04-04T12:55:43.434Z,3.43
2018-04-04T12:58:11.489Z,3.27
2018-04-04T13:00:39.134Z,3.40
2018-04-04T13:03:06.777Z,2.87
2018-04-04T13:05:34.473Z,2.70
2018-04-04T13:08:02.192Z,2.90
2018-04-04T13:10:30.194Z,2.37
2018-04-04T13:12:57.848Z,2.87
2018-04-04T13:15:25.596Z,2.80
2018-04-04T13:17:53.253Z,2.50
2018-04-04T13:20:20.909Z,3.17
2018-04-04T13:22:48.649Z,2.50
2018-04-04T13:25:16.412Z,3.07
2018-04-04T13:27:44.506Z,2.20
2018-04-04T13:30:12.174Z,2.90
2018-04-04T13:32:39.818Z,2.87
2018-04-04T13:35:07.483Z,3.00
2018-04-04T13:37:35.143Z,2.43
2018-04-04T13:40:02.794Z,1.70
2018-04-04T13:42:30.829Z,2.50
2018-04-04T13:44:59.374Z,2.13
2018-04-04T13:47:27.106Z,2.07
2018-04-04T13:49:54.842Z,2.00
2018-04-04T13:52:22.503Z,3.40
2018-04-04T13:54:50.212Z,2.07
2018-04-04T13:57:17.902Z,1.57
2018-04-04T13:59:45.622Z,1.97
2018-04-04T14:02:13.659Z,2.63
2018-04-04T14:04:41.300Z,2.70
2018-04-04T14:07:08.940Z,2.47
2018-04-04T14:09:36.617Z,1.73
2018-04-04T14:12:04.262Z,2.10
2018-04-04T14:14:31.964Z,1.87
2018-04-04T14:16:59.589Z,1.80
2018-04-04T14:19:27.334Z,2.60
2018-04-04T14:21:54.986Z,1.90
2018-04-04T14:24:23.025Z,2.03
2018-04-04T14:26:50.722Z,1.50
2018-04-04T14:29:18.936Z,2.30
2018-04-04T14:31:46.580Z,2.67
2018-04-04T14:34:14.246Z,2.03
2018-04-04T14:36:41.905Z,1.83
2018-04-04T14:39:09.568Z,2.30
2018-04-04T14:41:37.218Z,2.27
2018-04-04T14:44:04.859Z,1.93
2018-04-04T14:46:32.886Z,1.97
2018-04-04T14:49:00.550Z,2.10
2018-04-04T14:51:29.158Z,2.63
2018-04-04T14:53:56.813Z,1.80
2018-04-04T14:56:24.439Z,2.20
2018-04-04T14:58:52.172Z,2.00
2018-04-04T15:01:20.205Z,2.37
2018-04-04T15:03:47.898Z,1.40
2018-04-04T15:06:15.940Z,2.57
2018-04-04T15:08:43.697Z,2.13
2018-04-04T15:11:11.326Z,1.97
2018-04-04T15:13:39.025Z,2.00
2018-04-04T15:16:06.669Z,3.00
2018-04-04T15:18:36.053Z,2.20
2018-04-04T15:21:04.126Z,1.53
2018-04-04T15:23:31.836Z,2.73
2018-04-04T15:25:59.485Z,2.27
2018-04-04T15:28:27.146Z,2.10
2018-04-04T15:30:54.901Z,2.20
2018-04-04T15:33:22.543Z,2.37
2018-04-04T15:35:50.187Z,2.20
2018-04-04T15:38:17.865Z,1.93
2018-04-04T15:40:45.613Z,2.33
2018-04-04T15:43:13.294Z,2.87
2018-04-04T15:45:41.014Z,1.60
2018-04-04T15:48:08.666Z,2.10
2018-04-04T15:50:36.315Z,2.33
2018-04-04T15:53:03.968Z,2.07
2018-04-04T15:55:31.608Z,2.20
2018-04-04T15:57:59.296Z,2.23
2018-04-04T16:00:26.950Z,2.10
2018-04-04T16:02:54.605Z,1.87
2018-04-04T16:05:22.330Z,2.20
2018-04-04T16:07:50.402Z,1.90
2018-04-04T16:10:18.459Z,2.77
2018-04-04T16:12:46.525Z,2.20
2018-04-04T16:15:14.199Z,1.93
2018-04-04T16:17:42.242Z,2.33
2018-04-04T16:20:09.924Z,2.33
2018-04-04T16:22:37.982Z,2.10
2018-04-04T16:25:05.609Z,4.57
2018-04-04T16:27:33.355Z,3.80
2018-04-04T16:30:01.013Z,2.50
2018-04-04T16:32:28.689Z,2.83
2018-04-04T16:34:56.421Z,2.80
2018-04-04T16:37:24.085Z,3.47
2018-04-04T16:39:52.182Z,2.80
2018-04-04T16:42:19.867Z,2.70
2018-04-04T16:44:47.497Z,2.60
2018-04-04T16:47:15.236Z,2.23
2018-04-04T16:49:43.291Z,2.30
2018-04-04T16:52:10.938Z,2.33
2018-04-04T16:54:38.595Z,2.20
2018-04-04T16:57:06.702Z,2.80
2018-04-04T16:59:34.761Z,3.40
2018-04-04T17:02:02.416Z,2.40
2018-04-04T17:04:30.095Z,3.40
2018-04-04T17:06:57.778Z,3.57
2018-04-04T17:09:25.423Z,2.70
2018-04-04T17:11:53.498Z,2.90
2018-04-04T17:14:21.643Z,3.40
2018-04-04T17:16:49.383Z,3.10
2018-04-04T17:19:17.139Z,3.20
2018-04-04T17:21:44.877Z,3.67
2018-04-04T17:24:12.532Z,3.90
2018-04-04T17:26:40.609Z,3.80
2018-04-04T17:29:08.273Z,3.40
2018-04-04T17:31:35.931Z,4.53
2018-04-04T17:34:03.861Z,4.60
2018-04-04T17:36:31.585Z,4.30
2018-04-04T17:38:59.387Z,4.10
2018-04-04T17:41:27.048Z,4.73
2018-04-04T17:43:54.715Z,6.40
2018-04-04T17:46:22.383Z,5.57
2018-04-04T17:48:50.034Z,6.93
2018-04-04T17:51:17.736Z,6.70
2018-04-04T17:53:45.810Z,7.10
2018-04-04T17:56:13.859Z,4.93
2018-04-04T17:58:41.566Z,4.90
2018-04-04T18:01:09.231Z,4.77
2018-04-04T18:03:36.883Z,6.17
2018-04-04T18:06:04.648Z,5.60
2018-04-04T18:08:32.401Z,4.53
2018-04-04T18:11:00.058Z,8.00
2018-04-04T18:13:28.150Z,5.30
2018-04-04T18:15:55.873Z,9.17
2018-04-04T18:18:23.535Z,8.60
2018-04-04T18:20:51.179Z,5.70
2018-04-04T18:23:18.866Z,4.77
2018-04-04T18:25:46.977Z,6.30
2018-04-04T18:28:15.506Z,5.20
2018-04-04T18:30:43.145Z,7.10
2018-04-04T18:33:10.855Z,6.13
2018-04-04T18:35:38.944Z,5.13
2018-04-04T18:38:06.981Z,5.60
2018-04-04T18:40:34.636Z,5.13
2018-04-04T18:43:02.294Z,6.10
2018-04-04T18:45:29.948Z,5.43
2018-04-04T18:47:57.671Z,6.20
2018-04-04T18:50:25.316Z,6.40
2018-04-04T18:52:53.363Z,6.33
2018-04-04T18:55:21.056Z,5.13
2018-04-04T18:57:48.726Z,4.87
2018-04-04T19:00:16.391Z,6.20
2018-04-04T19:02:44.046Z,5.40
2018-04-04T19:05:11.680Z,6.37
2018-04-04T19:07:39.338Z,5.83
2018-04-04T19:10:07.011Z,5.17
2018-04-04T19:12:35.087Z,3.70
2018-04-04T19:15:03.137Z,4.73
2018-04-04T19:17:30.819Z,6.63
2018-04-04T19:19:58.897Z,4.37
2018-04-04T19:22:27.016Z,3.60
2018-04-04T19:24:54.627Z,3.30
2018-04-04T19:27:22.783Z,2.93
2018-04-04T19:29:50.434Z,2.50
2018-04-04T19:32:18.117Z,2.00
2018-04-04T19:34:46.175Z,1.07
2018-04-04T19:37:14.260Z,1.43
2018-04-04T19:39:42.436Z,1.20
2018-04-04T19:42:10.478Z,1.20
2018-04-04T19:44:38.175Z,1.27
2018-04-04T19:47:05.896Z,1.60
2018-04-04T19:49:33.539Z,1.90
2018-04-04T19:52:01.255Z,1.53
2018-04-04T19:54:29.342Z,1.63
2018-04-04T19:56:56.998Z,1.40
2018-04-04T19:59:25.037Z,1.70
2018-04-04T20:01:52.719Z,1.37
2018-04-04T20:04:20.390Z,1.70
2018-04-04T20:06:48.444Z,2.40
2018-04-04T20:09:16.103Z,2.40
2018-04-04T20:11:43.745Z,1.93
2018-04-04T20:14:11.400Z,3.40
2018-04-04T20:16:39.102Z,3.60
2018-04-04T20:19:06.728Z,3.00
2018-04-04T20:21:34.397Z,3.33
2018-04-04T20:24:02.063Z,2.27
2018-04-04T20:26:29.735Z,2.67
2018-04-04T20:28:57.473Z,2.50
2018-04-04T20:31:25.177Z,2.97
2018-04-04T20:33:53.258Z,2.53
2018-04-04T20:36:21.303Z,2.67
2018-04-04T20:38:48.950Z,2.40
2018-04-04T20:41:16.585Z,2.57
2018-04-04T20:43:44.240Z,2.87
2018-04-04T20:46:11.978Z,4.80
2018-04-04T20:48:40.030Z,4.60
2018-04-04T20:51:07.752Z,3.47
2018-04-04T20:53:35.746Z,3.40
2018-04-04T20:56:03.378Z,3.30
2018-04-04T20:58:31.027Z,5.30
2018-04-04T21:00:58.766Z,3.87
2018-04-04T21:03:26.820Z,4.07
2018-04-04T21:05:54.459Z,4.60
2018-04-04T21:08:22.162Z,4.63
2018-04-04T21:10:49.924Z,6.07
2018-04-04T21:13:17.969Z,5.60
2018-04-04T21:15:45.617Z,6.27
2018-04-04T21:18:13.274Z,9.10
2018-04-04T21:20:40.916Z,7.67
2018-04-04T21:23:08.564Z,7.27
2018-04-04T21:25:36.222Z,7.47
2018-04-04T21:28:05.124Z,7.90
2018-04-04T21:30:32.772Z,7.67
2018-04-04T21:33:00.423Z,7.00
2018-04-04T21:35:28.488Z,8.73
2018-04-04T21:37:56.534Z,8.10
2018-04-04T21:40:24.188Z,7.43
2018-04-04T21:42:51.859Z,6.50
2018-04-04T21:45:19.499Z,7.87
2018-04-04T21:47:47.142Z,7.50
2018-04-04T21:50:14.795Z,7.70
2018-04-04T21:52:42.459Z,7.30
2018-04-04T21:55:10.117Z,8.27
2018-04-04T21:57:37.858Z,7.87
2018-04-04T22:00:06.642Z,6.80
2018-04-04T22:02:34.713Z,7.60
2018-04-04T22:05:02.747Z,5.87
2018-04-04T22:07:30.401Z,6.10
2018-04-04T22:09:58.045Z,6.70
2018-04-04T22:12:25.782Z,7.40
2018-04-04T22:14:53.807Z,6.17
2018-04-04T22:17:21.541Z,6.03
2018-04-04T22:19:49.180Z,5.70
2018-04-04T22:22:16.941Z,6.00
2018-04-04T22:24:44.979Z,6.57
2018-04-04T22:27:12.629Z,6.37
2018-04-04T22:29:40.264Z,6.07
2018-04-04T22:32:08.010Z,6.83
2018-04-04T22:34:35.659Z,5.83
2018-04-04T22:37:03.719Z,6.83
2018-04-04T22:39:31.385Z,5.90
2018-04-04T22:41:59.024Z,4.97
2018-04-04T22:44:26.702Z,5.27
2018-04-04T22:46:54.383Z,4.20
2018-04-04T22:49:22.431Z,3.70
2018-04-04T22:51:50.508Z,3.90
2018-04-04T22:54:18.302Z,4.03
2018-04-04T22:56:46.082Z,4.07
2018-04-04T22:59:13.809Z,4.27
2018-04-04T23:01:41.875Z,3.67
2018-04-04T23:04:09.568Z,4.17
2018-04-04T23:06:37.230Z,4.40
2018-04-04T23:09:05.786Z,4.20
2018-04-04T23:11:33.835Z,3.47
2018-04-04T23:14:01.476Z,3.60
2018-04-04T23:16:29.185Z,3.93
2018-04-04T23:18:57.212Z,4.77
2018-04-04T23:21:24.920Z,4.90
2018-04-04T23:23:52.620Z,4.70
2018-04-04T23:26:20.347Z,4.70
2018-04-04T23:28:48.405Z,5.50
2018-04-04T23:31:16.064Z,5.53
2018-04-04T23:33:43.712Z,5.70
2018-04-04T23:36:11.404Z,5.77
2018-04-04T23:38:39.481Z,5.50
2018-04-04T23:41:07.544Z,6.10
2018-04-04T23:43:35.191Z,6.80
2018-04-04T23:46:02.856Z,6.00
2018-04-04T23:48:30.500Z,7.13
2018-04-04T23:50:58.227Z,7.30
2018-04-04T23:53:25.878Z,6.90
2018-04-04T23:55:53.623Z,8.00
2018-04-04T23:58:21.695Z,7.23
